Disclaimer

Please do not use the information listed here in-flight or in-navigation, as they are not provided to us by the airports but are provided by volunteers, so they might be outdated.

Search


Regions


Airport information page

Radio informations:
OBREGON APP/TWR - 118.3 MHz
Automatic Terminal Information Service (ATIS) - 127.6 MHz

Airport informations:
Latitude: 27° 23' 33.50" N
Longitude: 109° 49' 59.20" W
Elevation: 205 feet - 62 meters
Operating hours: Remarks
Operating agency: Civil government, landing fees and diplomatic clearance may be required
Timezone: UTC-7
Fuel: Jet A1, without icing nhibitor.

100/130 MIL Spec, low lead, aviation gasoline (BLUE)

Runway information:
13/31 - 7546 x 148 feet< - >2300 x 45 meters

Recent METARs:
MMCN 191642Z 08004KT 10SM FEW200 24/06 A3003 RMK 8/001 FULYR NW
MMCN 191642Z 08004KT 10SM FEW200 24/06 A3003 RMK 8/001 FULYR NW
MMCN 191748Z 00000KT 10SM FEW200 26/05 A3002 RMK SLP166 8/001 HZY

Airport on the map: